Terminal Aerodrome Forecast
Issued by NWS

Home | Current Version | Previous Version | Text Only | Print | Product List | Glossary On
Versions: 1 2 3 4 5 6 7 8 9 10 11 12 13 14 15 16 17 18 19 20 21 22
000
FTUS41 KCAR 031828 AAC
TAFHUL
TAF AMD
KHUL 031828Z 0318/0418 03006KT P6SM OVC015
      TEMPO 0318/0319 3SM BR BKN009
     FM032000 VRB03KT P6SM OVC025
     FM040900 08004KT 5SM BR SCT003 BKN025
     FM041200 08004KT P6SM SCT025
     FM041500 09004KT P6SM BKN040=

USA.gov is the U.S. government's official web portal to all federal, state and local government web resources and services.